Time;durP1;ratioP1;P1;durP2;ratioP2;P2;SDS_P1;SDS_P2;PMS_P1;PMS_P2;Temp;Humidity;BMP_temperature;BMP_pressure;BME280_temperature;BME280_humidity;BME280_pressure;Samples;Min_cycle;Max_cycle;Signal;HPM_P1;HPM_P2
2021/12/20 00:01:41;;;;;;;7.10;5.23;;;;;;;5.74;100.00;99361.59;5072850;28;20187;-77
2021/12/20 00:04:08;;;;;;;11.77;5.93;;;;;;;5.48;100.00;99322.47;5081984;28;20249;-77
2021/12/20 00:06:35;;;;;;;5.10;4.57;;;;;;;5.70;100.00;99364.97;5092953;28;20190;-75
2021/12/20 00:09:04;;;;;;;6.17;5.10;;;;;;;5.70;100.00;99371.81;5093087;28;20190;-77
2021/12/20 00:11:31;;;;;;;9.97;6.80;;;;;;;5.77;100.00;99386.56;5072783;28;20198;-76
2021/12/20 00:13:58;;;;;;;8.23;5.70;;;;;;;5.67;100.00;99359.72;5073109;28;20260;-75
2021/12/20 00:16:24;;;;;;;13.57;7.07;;;;;;;5.70;100.00;99374.38;5080134;28;20186;-78
2021/12/20 00:18:51;;;;;;;10.47;6.43;;;;;;;5.72;100.00;99375.28;5086276;28;20202;-75
2021/12/20 00:21:18;;;;;;;7.57;4.87;;;;;;;5.70;100.00;99376.97;5089828;28;20707;-77
2021/12/20 00:23:45;;;;;;;6.93;5.53;;;;;;;5.70;100.00;99371.81;5092892;28;20197;-75
2021/12/20 00:26:13;;;;;;;8.00;4.80;;;;;;;5.66;100.00;99377.72;5075127;28;20191;-75
2021/12/20 00:28:40;;;;;;;8.03;5.27;;;;;;;5.66;100.00;99388.00;5072199;28;20685;-76
2021/12/20 00:31:08;;;;;;;9.77;4.47;;;;;;;5.69;100.00;99388.06;5071423;28;20206;-74
2021/12/20 00:33:34;;;;;;;5.50;4.57;;;;;;;5.65;100.00;99379.41;5086927;28;20241;-77
2021/12/20 00:36:02;;;;;;;7.47;5.53;;;;;;;5.60;100.00;99381.00;5078452;28;20191;-78
2021/12/20 00:41:14;;;;;;;7.50;4.47;;;;;;;5.64;100.00;99379.38;5083533;28;20202;-77
2021/12/20 00:43:41;;;;;;;6.20;4.70;;;;;;;5.58;100.00;99380.09;5073264;28;20678;-74
2021/12/20 00:46:08;;;;;;;6.20;5.50;;;;;;;5.44;100.00;99366.06;5078621;28;20198;-74
2021/12/20 00:48:35;;;;;;;10.53;7.60;;;;;;;5.45;100.00;99388.38;5072279;28;20593;-74
2021/12/20 00:51:02;;;;;;;11.73;6.20;;;;;;;4.91;100.00;99318.50;5081444;28;20201;-77
2021/12/20 00:53:29;;;;;;;9.33;6.33;;;;;;;5.43;100.00;99390.00;5091710;28;20234;-77
2021/12/20 00:55:56;;;;;;;7.97;3.80;;;;;;;5.46;100.00;99390.97;5087578;28;20191;-76
2021/12/20 00:58:24;;;;;;;7.03;5.37;;;;;;;5.46;100.00;99380.69;5082768;28;20202;-77
2021/12/20 01:00:53;;;;;;;8.23;5.00;;;;;;;5.47;100.00;99385.00;5091200;28;20190;-75
2021/12/20 01:03:21;;;;;;;8.00;5.83;;;;;;;5.41;100.00;99382.28;5090199;28;20267;-77
2021/12/20 01:05:49;;;;;;;8.47;5.60;;;;;;;5.49;100.00;99385.88;5073755;28;20586;-78
2021/12/20 01:08:17;;;;;;;13.37;6.33;;;;;;;5.17;100.00;99325.16;5072103;28;20191;-75
2021/12/20 01:10:50;;;;;;;9.53;6.07;;;;;;;5.56;100.00;99378.34;5071689;28;20193;-77
2021/12/20 01:13:20;;;;;;;7.90;6.00;;;;;;;5.43;100.00;99383.19;5072042;28;20309;-77
2021/12/20 01:15:51;;;;;;;6.10;4.87;;;;;;;5.44;100.00;99386.63;5086764;28;20669;-77
2021/12/20 01:18:19;;;;;;;8.73;5.67;;;;;;;5.24;100.00;99370.75;5087331;28;20225;-77
2021/12/20 01:20:47;;;;;;;7.37;5.57;;;;;;;5.17;100.00;99355.13;5071348;28;20226;-75
2021/12/20 01:23:14;;;;;;;4.03;3.73;;;;;;;5.33;100.00;99388.06;5072895;28;20202;-75
2021/12/20 01:25:42;;;;;;;9.37;5.63;;;;;;;5.33;100.00;99394.06;5071949;28;20194;-75
2021/12/20 01:28:10;;;;;;;5.20;4.27;;;;;;;5.33;100.00;99383.78;5074455;28;20191;-75
2021/12/20 01:30:38;;;;;;;7.47;6.43;;;;;;;5.36;100.00;99378.72;5091221;28;20190;-76
2021/12/20 01:33:08;;;;;;;6.37;4.60;;;;;;;5.40;100.00;99388.25;5091730;28;20675;-76
2021/12/20 01:35:35;;;;;;;3.80;3.43;;;;;;;5.39;100.00;99378.78;5089971;28;20586;-76
2021/12/20 01:38:03;;;;;;;5.63;5.00;;;;;;;5.26;100.00;99387.06;5089940;28;20213;-78
2021/12/20 01:40:30;;;;;;;8.10;5.90;;;;;;;5.22;100.00;99380.09;5082167;28;20669;-76
2021/12/20 01:42:58;;;;;;;6.57;5.00;;;;;;;5.25;100.00;99382.72;5078493;28;20719;-77
2021/12/20 01:45:27;;;;;;;9.70;5.70;;;;;;;5.39;100.00;99372.78;5075788;28;20195;-77
2021/12/20 01:48:02;;;;;;;7.67;5.20;;;;;;;5.13;100.00;99343.91;5075601;28;20195;-77
2021/12/20 01:50:49;;;;;;;4.20;3.13;;;;;;;4.99;100.00;99311.88;5075475;28;20683;-76
2021/12/20 01:53:19;;;;;;;5.37;4.87;;;;;;;5.18;100.00;99364.56;5081546;28;20226;-76
2021/12/20 01:55:46;;;;;;;5.67;4.80;;;;;;;5.27;100.00;99377.66;5092274;28;20194;-74
2021/12/20 01:58:13;;;;;;;4.97;4.07;;;;;;;5.22;100.00;99358.66;5076116;28;20191;-78
2021/12/20 02:03:22;;;;;;;12.90;6.30;;;;;;;5.15;100.00;99355.06;5077221;28;20559;-75
2021/12/20 02:05:55;;;;;;;8.93;5.30;;;;;;;5.13;100.00;99349.03;5081267;28;20195;-75
2021/12/20 02:08:24;;;;;;;7.70;5.43;;;;;;;5.12;100.00;99349.00;5075024;28;20738;-75
2021/12/20 02:10:55;;;;;;;9.50;6.30;;;;;;;5.05;100.00;99358.25;5092473;28;20233;-76
2021/12/20 02:13:24;;;;;;;9.03;7.07;;;;;;;5.09;100.00;99342.09;5095578;28;20292;-75
2021/12/20 02:15:51;;;;;;;9.27;6.23;;;;;;;5.17;100.00;99350.00;5093933;28;20661;-75
2021/12/20 02:18:18;;;;;;;9.50;6.33;;;;;;;4.94;100.00;99305.75;5084086;28;20195;-75
2021/12/20 02:20:46;;;;;;;6.43;4.77;;;;;;;5.15;100.00;99331.09;5088570;28;20214;-75
2021/12/20 02:23:13;;;;;;;10.80;7.10;;;;;;;3.79;100.00;99107.78;5094368;28;20194;-75
2021/12/20 02:25:40;;;;;;;8.03;5.67;;;;;;;5.09;100.00;99336.94;5095150;28;20605;-74
2021/12/20 02:28:08;;;;;;;9.53;6.60;;;;;;;4.96;100.00;99307.50;5094800;28;20201;-75
2021/12/20 02:30:50;;;;;;;12.57;7.97;;;;;;;5.18;100.00;99333.72;5095030;28;20605;-77
2021/12/20 02:38:50;;;;;;;11.77;9.00;;;;;;;5.07;100.00;99351.44;5078287;28;20198;-77
2021/12/20 02:41:24;;;;;;;10.60;6.10;;;;;;;5.15;100.00;99352.50;5073431;28;20694;-75
2021/12/20 02:43:55;;;;;;;11.77;7.40;;;;;;;4.82;100.00;99269.47;5073662;28;20248;-77
2021/12/20 02:46:45;;;;;;;11.30;6.03;;;;;;;5.28;100.00;99345.97;5085218;28;20193;-76
2021/12/20 02:49:14;;;;;;;8.83;7.13;;;;;;;5.27;100.00;99350.25;5090068;28;20202;-78
2021/12/20 02:51:43;;;;;;;10.27;6.07;;;;;;;5.28;100.00;99348.56;5092990;28;20201;-77
2021/12/20 02:54:12;;;;;;;8.07;4.67;;;;;;;5.31;100.00;99344.34;5092967;28;20222;-76
2021/12/20 02:56:41;;;;;;;12.30;5.77;;;;;;;5.31;100.00;99358.91;5082276;28;20195;-76
2021/12/20 02:59:08;;;;;;;12.97;5.13;;;;;;;5.31;100.00;99346.06;5089447;28;20190;-77
2021/12/20 03:01:37;;;;;;;12.67;7.40;;;;;;;4.97;100.00;99295.53;5081700;28;20198;-77
2021/12/20 03:04:05;;;;;;;8.23;5.00;;;;;;;5.33;100.00;99352.09;5072942;28;20187;-76
2021/12/20 03:06:37;;;;;;;9.27;6.03;;;;;;;5.33;100.00;99352.97;5073219;28;20202;-78
2021/12/20 03:09:08;;;;;;;10.67;5.83;;;;;;;5.31;100.00;99346.94;5088226;28;20194;-75
2021/12/20 03:11:36;;;;;;;8.83;6.50;;;;;;;5.34;100.00;99341.84;5092623;28;20677;-76
2021/12/20 03:14:11;;;;;;;11.13;6.17;;;;;;;5.43;100.00;99344.63;5093261;28;20282;-77
2021/12/20 03:16:37;;;;;;;12.03;7.73;;;;;;;5.42;100.00;99342.03;5081961;28;20205;-75
2021/12/20 03:19:04;;;;;;;9.93;6.20;;;;;;;5.42;100.00;99345.44;5089374;28;20592;-76
2021/12/20 03:21:32;;;;;;;12.10;8.10;;;;;;;5.46;100.00;99347.25;5092593;28;20222;-75
2021/12/20 03:23:58;;;;;;;4.00;3.60;;;;;;;5.39;100.00;99347.94;5093201;28;20620;-77
2021/12/20 03:26:27;;;;;;;11.60;7.80;;;;;;;5.42;100.00;99363.44;5092507;28;20198;-75
2021/12/20 03:28:53;;;;;;;13.37;8.77;;;;;;;5.16;100.00;99328.56;5092810;28;20198;-76
2021/12/20 03:31:20;;;;;;;11.80;9.43;;;;;;;5.14;100.00;99319.94;5091633;28;20197;-78
2021/12/20 03:33:47;;;;;;;11.07;7.03;;;;;;;5.34;100.00;99353.84;5092250;28;20237;-76
2021/12/20 03:36:14;;;;;;;13.77;8.63;;;;;;;5.36;100.00;99378.72;5047554;28;1267681;-75
2021/12/20 03:38:41;;;;;;;9.53;7.03;;;;;;;5.27;100.00;99362.22;5079875;28;20587;-75
2021/12/20 03:41:08;;;;;;;14.13;8.93;;;;;;;5.35;100.00;99360.72;5072992;28;20194;-76
2021/12/20 03:43:36;;;;;;;15.30;10.40;;;;;;;5.37;100.00;99370.19;5073219;28;20206;-76
2021/12/20 03:46:04;;;;;;;11.63;7.33;;;;;;;5.19;100.00;99338.91;5077752;28;20220;-76
2021/12/20 03:48:31;;;;;;;11.23;7.80;;;;;;;5.40;100.00;99375.41;5091275;28;20202;-75
2021/12/20 03:51:01;;;;;;;10.93;7.97;;;;;;;5.46;100.00;99372.09;5083186;28;20241;-75
2021/12/20 03:53:28;;;;;;;13.47;8.77;;;;;;;5.44;100.00;99366.94;5075383;28;20226;-75
2021/12/20 03:55:55;;;;;;;9.37;6.70;;;;;;;5.40;100.00;99359.09;5073961;28;20198;-77
2021/12/20 03:58:22;;;;;;;15.57;9.03;;;;;;;5.31;100.00;99364.91;5079946;28;20190;-75
2021/12/20 04:00:51;;;;;;;11.17;7.53;;;;;;;5.27;100.00;99349.38;5077656;28;20191;-75
2021/12/20 04:03:18;;;;;;;13.90;8.93;;;;;;;5.41;100.00;99387.44;5072847;28;20692;-76
2021/12/20 04:05:45;;;;;;;43.10;10.90;;;;;;;5.47;100.00;99378.97;5072452;28;20202;-74
2021/12/20 04:08:11;;;;;;;17.67;10.60;;;;;;;5.49;100.00;99378.19;5073139;28;20194;-74
2021/12/20 04:10:39;;;;;;;7.20;6.50;;;;;;;5.45;100.00;99372.94;5072840;28;20199;-75
2021/12/20 04:13:05;;;;;;;11.97;6.70;;;;;;;5.33;100.00;99368.38;5073252;28;20226;-73
2021/12/20 04:15:32;;;;;;;13.10;7.80;;;;;;;5.39;100.00;99394.22;5072917;28;20187;-73
2021/12/20 04:18:01;;;;;;;12.40;8.27;;;;;;;5.45;100.00;99391.81;5092749;28;20201;-74
2021/12/20 04:20:27;;;;;;;13.50;9.70;;;;;;;5.34;100.00;99392.38;5093053;28;20263;-73
2021/12/20 04:22:54;;;;;;;9.17;6.23;;;;;;;5.37;100.00;99369.31;5093215;28;20194;-74
2021/12/20 04:25:22;;;;;;;11.10;7.03;;;;;;;5.44;100.00;99372.06;5081582;28;20191;-73
2021/12/20 04:27:49;;;;;;;17.33;10.07;;;;;;;5.11;100.00;99342.97;5073538;28;20205;-73
2021/12/20 04:30:17;;;;;;;17.10;11.17;;;;;;;5.46;100.00;99374.66;5072904;28;20198;-74
2021/12/20 04:32:46;;;;;;;21.40;10.53;;;;;;;5.30;100.00;99337.47;5074269;28;20203;-74
2021/12/20 04:35:16;;;;;;;17.10;11.30;;;;;;;5.46;100.00;99365.25;5092739;28;20208;-73
2021/12/20 04:37:45;;;;;;;32.77;17.93;;;;;;;5.43;100.00;99364.31;5092736;28;20226;-74
2021/12/20 04:40:18;;;;;;;15.67;10.63;;;;;;;5.33;100.00;99365.81;5090884;28;20186;-73
2021/12/20 04:42:45;;;;;;;18.00;10.50;;;;;;;5.47;100.00;99377.28;5093085;28;20255;-74
2021/12/20 04:45:11;;;;;;;26.80;16.73;;;;;;;5.37;100.00;99385.63;5093321;28;20197;-73
2021/12/20 04:47:38;;;;;;;12.00;9.47;;;;;;;5.33;100.00;99393.19;5092193;28;20189;-75
2021/12/20 04:50:07;;;;;;;20.87;10.47;;;;;;;5.20;100.00;99392.03;5093510;28;20684;-73
2021/12/20 04:52:35;;;;;;;18.47;12.00;;;;;;;5.19;100.00;99410.84;5090737;28;20282;-75
2021/12/20 04:55:03;;;;;;;20.77;10.77;;;;;;;5.24;100.00;99404.16;5090825;28;20230;-74
2021/12/20 04:57:30;;;;;;;17.47;10.93;;;;;;;5.18;100.00;99419.38;5090893;28;20194;-72
2021/12/20 04:59:56;;;;;;;14.83;11.10;;;;;;;5.20;100.00;99411.72;5076322;28;20579;-73
2021/12/20 05:02:23;;;;;;;19.70;12.23;;;;;;;5.20;100.00;99420.31;5072956;28;20322;-73
2021/12/20 05:04:50;;;;;;;8.03;6.60;;;;;;;5.17;100.00;99416.78;5091995;28;20190;-74
2021/12/20 05:07:17;;;;;;;8.33;5.97;;;;;;;5.06;100.00;99398.53;5092079;28;20202;-74
2021/12/20 05:09:45;;;;;;;21.73;13.73;;;;;;;5.18;100.00;99423.66;5092140;28;20601;-73
2021/12/20 05:12:14;;;;;;;17.30;11.40;;;;;;;5.13;100.00;99426.13;5092039;28;20198;-76
2021/12/20 05:14:42;;;;;;;8.30;6.03;;;;;;;5.17;100.00;99430.50;5091905;28;20616;-74
2021/12/20 05:17:10;;;;;;;31.27;13.70;;;;;;;5.20;100.00;99428.03;5092233;28;20194;-72
2021/12/20 05:19:38;;;;;;;24.73;13.17;;;;;;;5.27;100.00;99429.91;5079258;28;20260;-73
2021/12/20 05:22:05;;;;;;;14.83;8.23;;;;;;;5.23;100.00;99438.38;5072018;28;20219;-72
2021/12/20 05:24:32;;;;;;;16.70;11.57;;;;;;;5.28;100.00;99441.91;5071431;28;20198;-74
2021/12/20 05:27:00;;;;;;;9.83;7.07;;;;;;;5.26;100.00;99456.44;5071747;28;20657;-72
2021/12/20 05:29:27;;;;;;;14.00;10.17;;;;;;;5.32;100.00;99448.88;5071927;28;20249;-73
2021/12/20 05:31:54;;;;;;;7.70;5.67;;;;;;;5.20;100.00;99432.28;5071189;28;20256;-74
2021/12/20 05:34:21;;;;;;;10.63;7.73;;;;;;;5.24;100.00;99450.41;5089522;28;20214;-73
2021/12/20 05:36:48;;;;;;;13.77;7.57;;;;;;;5.22;100.00;99440.88;5091792;28;20279;-73
2021/12/20 05:39:15;;;;;;;13.00;6.23;;;;;;;5.24;100.00;99447.81;5082778;28;20191;-73
2021/12/20 05:41:42;;;;;;;19.33;11.60;;;;;;;5.24;100.00;99449.53;5072036;28;20201;-75
2021/12/20 05:44:11;;;;;;;29.60;14.70;;;;;;;5.25;100.00;99446.09;5071898;28;20199;-74
2021/12/20 05:46:37;;;;;;;16.03;7.60;;;;;;;5.25;100.00;99452.13;5072098;28;20195;-73
2021/12/20 05:49:04;;;;;;;17.60;9.83;;;;;;;5.18;100.00;99449.34;5084637;28;20697;-74
2021/12/20 05:51:31;;;;;;;19.50;8.37;;;;;;;5.23;100.00;99450.34;5090804;28;20194;-73
2021/12/20 05:53:58;;;;;;;19.97;10.50;;;;;;;5.22;100.00;99449.47;5091877;28;20661;-75
2021/12/20 05:56:25;;;;;;;26.13;9.30;;;;;;;5.24;100.00;99464.94;5091892;28;20190;-73
2021/12/20 05:58:52;;;;;;;15.80;8.40;;;;;;;5.11;100.00;99452.59;5085570;28;20195;-74
2021/12/20 06:01:20;;;;;;;24.63;10.20;;;;;;;5.20;100.00;99453.72;5070441;28;20731;-75
2021/12/20 06:03:47;;;;;;;27.80;8.77;;;;;;;5.22;100.00;99466.59;5071106;28;20619;-74
2021/12/20 06:06:14;;;;;;;27.07;10.73;;;;;;;5.24;100.00;99470.97;5071839;28;20194;-74
2021/12/20 06:08:42;;;;;;;34.93;11.90;;;;;;;5.27;100.00;99476.16;5082074;28;20190;-74
2021/12/20 06:11:08;;;;;;;42.80;13.07;;;;;;;5.29;100.00;99469.34;5090509;28;20198;-74
2021/12/20 06:13:35;;;;;;;38.23;12.20;;;;;;;5.22;100.00;99471.72;5091662;28;20201;-73
2021/12/20 06:16:02;;;;;;;32.23;14.07;;;;;;;5.28;100.00;99477.03;5076119;28;20195;-73
2021/12/20 06:18:30;;;;;;;35.97;13.67;;;;;;;5.12;100.00;99477.44;5073524;28;20187;-74
2021/12/20 06:20:57;;;;;;;15.13;9.90;;;;;;;5.18;100.00;99485.31;5091230;28;20647;-74
2021/12/20 06:23:24;;;;;;;5.87;4.57;;;;;;;5.17;100.00;99491.31;5075863;28;20191;-73
2021/12/20 06:25:50;;;;;;;10.73;6.10;;;;;;;5.20;100.00;99492.25;5071350;28;20198;-74
2021/12/20 06:28:17;;;;;;;10.27;6.20;;;;;;;5.09;100.00;99492.78;5071427;28;20206;-73
2021/12/20 06:30:44;;;;;;;6.70;4.47;;;;;;;5.06;100.00;99485.00;5074647;28;20195;-74
2021/12/20 06:33:11;;;;;;;7.60;5.47;;;;;;;5.06;100.00;99491.03;5086776;28;20194;-74
2021/12/20 06:35:39;;;;;;;10.13;6.50;;;;;;;4.99;100.00;99489.94;5095673;28;20282;-74
2021/12/20 06:38:08;;;;;;;5.43;4.53;;;;;;;5.01;100.00;99492.56;5074938;28;20288;-76
2021/12/20 06:40:36;;;;;;;9.50;6.73;;;;;;;4.87;100.00;99479.38;5080985;28;20202;-74
2021/12/20 06:43:04;;;;;;;11.30;6.83;;;;;;;4.95;100.00;99490.72;5077671;28;20674;-77
2021/12/20 06:45:33;;;;;;;8.27;6.07;;;;;;;4.92;100.00;99487.19;5094951;28;20259;-74
2021/12/20 06:48:00;;;;;;;8.20;6.03;;;;;;;4.92;100.00;99492.34;5082649;28;20202;-74
2021/12/20 06:50:27;;;;;;;11.73;7.00;;;;;;;4.87;100.00;99492.19;5074969;28;20191;-76
2021/12/20 06:52:55;;;;;;;7.47;5.47;;;;;;;4.95;100.00;99502.69;5074711;28;20230;-72
2021/12/20 06:55:23;;;;;;;14.60;8.33;;;;;;;4.77;100.00;99482.50;5074249;28;20233;-72
2021/12/20 06:57:50;;;;;;;12.67;8.13;;;;;;;4.77;100.00;99499.59;5074626;28;20190;-74
2021/12/20 07:00:17;;;;;;;14.27;8.30;;;;;;;4.89;100.00;99508.50;5074311;28;20241;-75
2021/12/20 07:02:44;;;;;;;11.57;7.27;;;;;;;4.89;100.00;99502.50;5073690;28;20199;-77
2021/12/20 07:05:11;;;;;;;5.87;5.30;;;;;;;4.68;100.00;99486.50;5074787;28;20195;-75
2021/12/20 07:07:39;;;;;;;7.93;5.77;;;;;;;4.80;100.00;99522.81;5074383;28;20585;-74
2021/12/20 07:10:09;;;;;;;21.50;7.47;;;;;;;4.95;100.00;99528.38;5074119;28;20198;-74
2021/12/20 07:12:37;;;;;;;8.53;5.23;;;;;;;4.84;100.00;99486.97;5074183;28;20191;-76
2021/12/20 07:15:09;;;;;;;6.57;4.63;;;;;;;4.91;100.00;99521.41;5074255;28;20246;-76
2021/12/20 07:17:36;;;;;;;6.03;5.03;;;;;;;4.96;100.00;99506.97;5074240;28;20210;-76
2021/12/20 07:20:04;;;;;;;10.40;6.50;;;;;;;4.63;100.00;99441.88;5074169;28;20648;-75
2021/12/20 07:22:31;;;;;;;5.13;4.53;;;;;;;5.09;100.00;99519.34;5073384;28;20195;-74
2021/12/20 07:24:58;;;;;;;9.70;6.20;;;;;;;5.33;100.00;99525.16;5073831;28;20206;-74
2021/12/20 07:27:27;;;;;;;8.67;5.53;;;;;;;5.34;100.00;99511.47;5074410;28;20202;-76
2021/12/20 07:29:54;;;;;;;9.17;5.37;;;;;;;5.15;100.00;99505.78;5074020;28;20191;-75
2021/12/20 07:32:21;;;;;;;25.90;11.70;;;;;;;5.28;100.00;99513.88;5073044;28;20594;-76
2021/12/20 07:34:48;;;;;;;8.43;5.47;;;;;;;5.34;100.00;99516.63;5073518;28;20309;-75
2021/12/20 07:37:16;;;;;;;6.27;4.00;;;;;;;5.18;100.00;99481.06;5073533;28;20690;-76
2021/12/20 07:39:43;;;;;;;5.97;3.83;;;;;;;5.50;100.00;99516.19;5073715;28;20657;-75
2021/12/20 07:42:10;;;;;;;10.70;5.70;;;;;;;5.62;100.00;99525.03;5072523;28;20191;-77
2021/12/20 07:44:39;;;;;;;5.90;2.90;;;;;;;5.60;100.00;99521.56;5073315;28;20199;-76
2021/12/20 07:47:06;;;;;;;5.40;3.20;;;;;;;5.39;100.00;99470.44;5073319;28;20205;-76
2021/12/20 07:49:34;;;;;;;4.70;3.27;;;;;;;5.66;100.00;99522.59;5073255;28;20673;-77
2021/12/20 07:52:01;;;;;;;5.50;4.80;;;;;;;5.66;100.00;99527.72;5073619;28;20237;-76
2021/12/20 07:54:28;;;;;;;3.07;2.77;;;;;;;5.36;100.00;99476.41;5073606;28;20223;-75
2021/12/20 07:56:55;;;;;;;8.80;5.50;;;;;;;5.68;100.00;99520.03;5073143;28;20199;-74
2021/12/20 07:59:22;;;;;;;11.37;6.60;;;;;;;5.66;100.00;99532.88;5073092;28;20252;-76
2021/12/20 08:01:50;;;;;;;11.00;6.30;;;;;;;5.77;100.00;99531.44;5072507;28;20195;-76
2021/12/20 08:04:17;;;;;;;6.10;4.80;;;;;;;5.83;100.00;99530.72;5073044;28;20285;-76
2021/12/20 08:06:44;;;;;;;5.13;4.03;;;;;;;6.02;100.00;99547.53;5073267;28;20187;-76
2021/12/20 08:09:12;;;;;;;10.37;6.03;;;;;;;6.29;100.00;99546.47;5072985;28;20607;-76
2021/12/20 08:11:39;;;;;;;5.47;3.37;;;;;;;6.02;100.00;99522.66;5072770;28;20198;-77
2021/12/20 08:14:06;;;;;;;7.87;5.20;;;;;;;6.29;100.00;99543.00;5072762;28;20194;-74
2021/12/20 08:16:33;;;;;;;5.23;4.47;;;;;;;6.36;100.00;99571.50;5072776;28;20674;-76
2021/12/20 08:19:01;;;;;;;5.03;3.63;;;;;;;6.24;100.00;99565.22;5073131;28;20194;-76
2021/12/20 08:21:28;;;;;;;6.77;4.33;;;;;;;6.19;100.00;99559.09;5073523;28;20285;-76
2021/12/20 08:23:55;;;;;;;8.90;6.17;;;;;;;6.16;100.00;99559.88;5072805;28;20191;-74
2021/12/20 08:26:21;;;;;;;4.20;3.77;;;;;;;5.97;100.00;99549.97;5072477;28;20202;-74
2021/12/20 08:28:48;;;;;;;4.57;2.83;;;;;;;5.97;100.00;99549.97;5072726;28;20195;-74
2021/12/20 08:31:15;;;;;;;8.07;4.37;;;;;;;6.09;100.00;99554.56;5071982;28;20254;-71
2021/12/20 08:33:42;;;;;;;4.80;4.03;;;;;;;6.11;100.00;99558.88;5072389;28;20194;-73
2021/12/20 08:36:12;;;;;;;3.67;3.33;;;;;;;6.13;100.00;99556.38;5072141;28;20242;-74
2021/12/20 08:38:40;;;;;;;10.33;7.70;;;;;;;6.08;100.00;99556.25;5072564;28;20195;-77
2021/12/20 08:41:07;;;;;;;19.23;9.40;;;;;;;5.98;100.00;99526.00;5072396;28;20669;-77
2021/12/20 08:43:34;;;;;;;7.27;5.43;;;;;;;6.13;100.00;99574.38;5072574;28;20283;-76
2021/12/20 08:46:02;;;;;;;5.73;5.17;;;;;;;6.23;100.00;99578.91;5072232;28;20187;-78
2021/12/20 08:48:31;;;;;;;4.77;3.37;;;;;;;6.26;100.00;99564.41;5072337;28;20195;-74
2021/12/20 08:50:58;;;;;;;5.17;3.87;;;;;;;6.26;100.00;99590.16;5072087;28;20234;-76
2021/12/20 08:53:26;;;;;;;3.23;2.93;;;;;;;6.18;100.00;99580.50;5072625;28;20197;-73
2021/12/20 08:55:52;;;;;;;3.30;2.60;;;;;;;6.12;100.00;99570.94;5072252;28;20223;-74
2021/12/20 08:58:19;;;;;;;3.07;2.87;;;;;;;6.12;100.00;99576.09;5072096;28;20194;-74
2021/12/20 09:00:46;;;;;;;8.70;4.30;;;;;;;6.20;100.00;99579.72;5072034;28;20191;-74
2021/12/20 09:03:13;;;;;;;2.50;2.40;;;;;;;6.14;100.00;99568.38;5071271;28;20282;-75
2021/12/20 09:05:40;;;;;;;3.97;3.67;;;;;;;6.12;100.00;99570.94;5072125;28;20214;-73
2021/12/20 09:08:10;;;;;;;3.53;2.63;;;;;;;6.08;100.00;99552.81;5071943;28;20198;-73
2021/12/20 09:10:38;;;;;;;2.47;2.27;;;;;;;6.13;100.00;99572.69;5072175;28;20199;-74
2021/12/20 09:13:07;;;;;;;7.37;5.20;;;;;;;6.25;100.00;99572.09;5071907;28;20210;-73
2021/12/20 09:15:34;;;;;;;7.20;5.37;;;;;;;6.23;100.00;99563.47;5072207;28;20287;-73
2021/12/20 09:18:02;;;;;;;12.50;7.07;;;;;;;6.23;100.00;99564.34;5071815;28;20193;-73
2021/12/20 09:20:30;;;;;;;6.30;3.30;;;;;;;6.19;100.00;99546.22;5072010;28;20222;-73
2021/12/20 09:23:04;;;;;;;7.67;4.50;;;;;;;6.29;100.00;99554.19;5071913;28;20187;-73
2021/12/20 09:25:32;;;;;;;4.93;3.73;;;;;;;6.38;100.00;99569.84;5072124;28;20199;-73
2021/12/20 09:28:01;;;;;;;6.07;4.73;;;;;;;6.43;100.00;99567.38;5071621;28;20621;-76
2021/12/20 09:30:30;;;;;;;6.63;4.17;;;;;;;6.25;100.00;99569.50;5072046;28;20205;-73
2021/12/20 09:32:57;;;;;;;4.70;3.73;;;;;;;6.29;100.00;99563.59;5071134;28;20195;-73
2021/12/20 09:35:24;;;;;;;6.97;3.10;;;;;;;6.36;100.00;99576.66;5071778;28;20728;-74
2021/12/20 09:37:51;;;;;;;6.03;4.03;;;;;;;6.30;100.00;99562.78;5071367;28;20237;-75
2021/12/20 09:40:31;;;;;;;7.83;4.87;;;;;;;6.24;100.00;99558.34;5071980;28;20681;-78
2021/12/20 09:43:01;;;;;;;4.63;4.13;;;;;;;6.21;100.00;99559.97;5071604;28;20664;-75
2021/12/20 09:45:28;;;;;;;4.27;3.87;;;;;;;6.33;100.00;99547.41;5071865;28;20210;-73
2021/12/20 09:47:56;;;;;;;5.33;4.77;;;;;;;6.38;100.00;99549.25;5071764;28;20622;-72
2021/12/20 09:50:23;;;;;;;6.63;4.83;;;;;;;6.46;100.00;99537.41;5071981;28;20630;-73
2021/12/20 09:52:50;;;;;;;8.87;5.20;;;;;;;6.49;100.00;99549.50;5071720;28;20191;-74
2021/12/20 09:55:17;;;;;;;5.20;4.70;;;;;;;6.52;100.00;99551.28;5071802;28;20230;-71
2021/12/20 09:57:47;;;;;;;4.10;3.70;;;;;;;6.54;100.00;99535.00;5072617;28;20191;-71
2021/12/20 10:00:20;;;;;;;5.07;4.50;;;;;;;6.76;100.00;99536.34;5072506;28;20195;-72
2021/12/20 10:02:48;;;;;;;9.90;3.77;;;;;;;6.65;100.00;99504.34;5071992;28;20191;-72
2021/12/20 10:05:19;;;;;;;4.83;3.47;;;;;;;6.74;100.00;99530.31;5074337;28;20203;-72
2021/12/20 10:07:50;;;;;;;7.03;4.70;;;;;;;6.45;100.00;99501.34;5075555;28;20289;-73
2021/12/20 10:10:36;;;;;;;3.90;3.60;;;;;;;6.66;100.00;99529.25;5075692;28;20603;-72
2021/12/20 10:13:03;;;;;;;4.10;3.70;;;;;;;6.80;100.00;99533.88;5075349;28;20191;-73
2021/12/20 10:15:35;;;;;;;5.33;4.33;;;;;;;6.76;100.00;99515.75;5075360;28;20660;-72
2021/12/20 10:18:03;;;;;;;8.23;4.80;;;;;;;6.88;100.00;99542.63;5074921;28;20187;-71
2021/12/20 10:20:32;;;;;;;11.03;4.93;;;;;;;6.89;100.00;99522.88;5075110;28;20225;-71
2021/12/20 10:23:12;;;;;;;6.83;4.63;;;;;;;6.94;100.00;99510.97;5075217;28;20195;-72
2021/12/20 10:25:40;;;;;;;7.83;5.00;;;;;;;6.93;100.00;99507.50;5075005;28;20199;-71
2021/12/20 10:28:09;;;;;;;8.83;4.47;;;;;;;7.05;100.00;99514.63;5074846;28;20807;-72
2021/12/20 10:30:41;;;;;;;10.67;6.33;;;;;;;6.90;100.00;99514.31;5074946;28;20209;-73
2021/12/20 10:33:14;;;;;;;8.60;5.27;;;;;;;6.80;100.00;99514.97;5074044;28;20202;-72
2021/12/20 10:35:44;;;;;;;7.73;5.10;;;;;;;6.78;100.00;99506.31;5074620;28;20218;-73
2021/12/20 10:38:33;;;;;;;7.13;4.77;;;;;;;6.91;100.00;99506.63;5074858;28;20191;-73
2021/12/20 10:41:03;;;;;;;8.07;3.77;;;;;;;6.99;100.00;99524.81;5074911;28;20198;-73
2021/12/20 10:43:36;;;;;;;7.80;5.80;;;;;;;7.02;100.00;99529.16;5075157;28;20191;-73
2021/12/20 10:46:13;;;;;;;9.17;4.80;;;;;;;7.00;100.00;99536.84;5074365;28;20665;-72
2021/12/20 10:48:40;;;;;;;7.93;4.47;;;;;;;7.01;100.00;99523.13;5075245;28;20194;-72
2021/12/20 10:51:17;;;;;;;8.73;5.67;;;;;;;7.00;100.00;99529.13;5074704;28;20198;-72
2021/12/20 10:53:46;;;;;;;7.83;5.10;;;;;;;6.84;100.00;99540.84;5074658;28;20194;-73
2021/12/20 10:56:13;;;;;;;6.70;5.37;;;;;;;7.00;100.00;99531.69;5074286;28;20697;-73
2021/12/20 10:58:40;;;;;;;11.47;6.03;;;;;;;6.79;100.00;99508.06;5074606;28;20190;-72
2021/12/20 11:01:24;;;;;;;9.80;5.93;;;;;;;7.06;100.00;99529.25;5074273;28;20194;-73
2021/12/20 11:04:04;;;;;;;11.60;6.23;;;;;;;7.15;100.00;99529.44;5074459;28;20277;-72
2021/12/20 11:09:23;;;;;;;12.80;6.30;;;;;;;7.02;100.00;99478.50;5035900;28;20219;-73
2021/12/20 11:11:52;;;;;;;15.70;6.47;;;;;;;7.43;100.00;99523.06;5074367;28;20205;-74
2021/12/20 11:14:21;;;;;;;7.20;5.33;;;;;;;7.47;100.00;99548.97;5074264;28;20201;-73
2021/12/20 11:16:52;;;;;;;6.87;3.93;;;;;;;7.26;100.00;99535.66;5073622;28;20222;-73
2021/12/20 11:19:22;;;;;;;11.50;5.27;;;;;;;7.33;100.00;99544.38;5074133;28;20205;-74
2021/12/20 11:22:09;;;;;;;6.90;3.80;;;;;;;7.28;100.00;99533.97;5074054;28;20203;-73
2021/12/20 11:24:42;;;;;;;7.70;5.07;;;;;;;7.32;100.00;99540.94;5073855;28;20198;-74
2021/12/20 11:27:11;;;;;;;5.53;5.03;;;;;;;7.08;100.00;99543.03;5074813;28;20199;-74
2021/12/20 11:29:40;;;;;;;5.30;3.57;;;;;;;6.96;100.00;99553.09;5074220;28;20206;-74
2021/12/20 11:32:09;;;;;;;8.73;4.57;;;;;;;6.95;100.00;99564.25;5072890;28;20206;-73
2021/12/20 11:34:38;;;;;;;4.20;3.70;;;;;;;6.90;100.00;99571.00;5073599;28;20677;-74
2021/12/20 11:37:05;;;;;;;6.43;3.97;;;;;;;6.97;100.00;99575.44;5073170;28;20601;-73
2021/12/20 11:39:32;;;;;;;6.20;4.90;;;;;;;6.89;100.00;99553.78;5073853;28;20190;-73
2021/12/20 11:41:59;;;;;;;6.70;4.07;;;;;;;7.02;100.00;99563.53;5073705;28;20244;-73
2021/12/20 11:44:29;;;;;;;9.20;5.63;;;;;;;7.00;100.00;99570.34;5073553;28;20708;-73
2021/12/20 11:47:07;;;;;;;9.67;5.27;;;;;;;7.00;100.00;99575.50;5073553;28;20199;-74
2021/12/20 11:49:36;;;;;;;6.30;5.07;;;;;;;7.01;100.00;99579.84;5073590;28;20206;-73